createdAt,value
2022-12-17T00:01:45.691Z,31.13
2022-12-17T00:04:31.105Z,29.27
2022-12-17T00:07:26.845Z,29.50
2022-12-17T00:10:11.657Z,27.10
2022-12-17T00:12:56.626Z,25.90
2022-12-17T00:15:42.433Z,25.60
2022-12-17T00:18:28.076Z,26.75
2022-12-17T00:21:14.112Z,25.02
2022-12-17T00:23:59.242Z,22.95
2022-12-17T00:26:44.396Z,25.80
2022-12-17T00:29:29.480Z,24.08
2022-12-17T00:32:25.154Z,24.13
2022-12-17T00:35:10.464Z,21.67
2022-12-17T00:37:58.767Z,22.15
2022-12-17T00:40:43.653Z,22.42
2022-12-17T00:43:32.012Z,23.13
2022-12-17T00:46:17.849Z,23.55
2022-12-17T00:49:03.577Z,23.33
2022-12-17T00:51:49.234Z,23.52
2022-12-17T00:54:34.590Z,22.10
2022-12-17T00:57:20.072Z,24.02
2022-12-17T01:00:05.036Z,23.77
2022-12-17T01:02:50.452Z,25.77
2022-12-17T01:05:35.671Z,23.83
2022-12-17T01:08:32.425Z,22.25
2022-12-17T01:11:22.260Z,22.47
2022-12-17T01:14:07.413Z,22.80
2022-12-17T01:16:52.428Z,21.20
2022-12-17T01:19:40.099Z,20.50
2022-12-17T01:22:25.584Z,21.60
2022-12-17T01:25:10.718Z,20.17
2022-12-17T01:27:55.535Z,20.52
2022-12-17T01:30:41.408Z,20.67
2022-12-17T01:33:26.672Z,21.83
2022-12-17T01:36:18.054Z,23.00
2022-12-17T01:39:10.997Z,23.73
2022-12-17T01:41:56.561Z,23.90
2022-12-17T01:45:00.377Z,25.73
2022-12-17T01:47:46.745Z,25.80
2022-12-17T01:50:32.588Z,25.10
2022-12-17T01:53:19.687Z,23.25
2022-12-17T01:56:04.880Z,26.05
2022-12-17T01:58:50.027Z,26.20
2022-12-17T02:01:35.364Z,25.35
2022-12-17T02:04:20.720Z,28.50
2022-12-17T02:07:17.041Z,26.33
2022-12-17T02:10:41.013Z,26.83
2022-12-17T02:13:49.564Z,25.85
2022-12-17T02:16:40.469Z,24.63
2022-12-17T02:20:04.420Z,25.23
2022-12-17T02:23:13.788Z,24.05
2022-12-17T02:26:08.189Z,24.65
2022-12-17T02:28:53.781Z,25.95
2022-12-17T02:31:39.497Z,25.17
2022-12-17T02:34:27.694Z,26.90
2022-12-17T02:37:13.445Z,25.85
2022-12-17T02:39:58.536Z,25.88
2022-12-17T02:42:45.025Z,25.67
2022-12-17T02:45:30.700Z,26.67
2022-12-17T02:48:15.763Z,24.75
2022-12-17T02:51:01.192Z,25.75
2022-12-17T02:53:46.232Z,25.92
2022-12-17T02:56:31.249Z,25.20
2022-12-17T02:59:16.188Z,25.35
2022-12-17T03:02:01.236Z,25.35
2022-12-17T03:04:46.614Z,25.70
2022-12-17T03:07:31.575Z,25.75
2022-12-17T03:10:16.787Z,25.45
2022-12-17T03:13:01.575Z,24.00
2022-12-17T03:15:46.510Z,25.85
2022-12-17T03:18:32.785Z,25.10
2022-12-17T03:21:17.901Z,24.60
2022-12-17T03:24:03.037Z,24.70
2022-12-17T03:26:48.017Z,22.98
2022-12-17T03:29:32.982Z,24.42
2022-12-17T03:32:18.120Z,24.77
2022-12-17T03:35:03.016Z,24.83
2022-12-17T03:37:48.527Z,23.60
2022-12-17T03:40:33.521Z,24.80
2022-12-17T03:43:24.783Z,24.70
2022-12-17T03:46:13.425Z,24.90
2022-12-17T03:48:58.628Z,23.83
2022-12-17T03:51:43.935Z,25.17
2022-12-17T03:54:28.959Z,24.95
2022-12-17T03:57:16.182Z,23.17
2022-12-17T04:00:01.939Z,23.88
2022-12-17T04:02:47.478Z,24.23
2022-12-17T04:05:32.927Z,23.45
2022-12-17T04:08:18.115Z,23.73
2022-12-17T04:11:02.971Z,23.88
2022-12-17T04:13:48.369Z,25.98
2022-12-17T04:16:33.679Z,23.45
2022-12-17T04:19:35.275Z,24.63
2022-12-17T04:22:20.445Z,22.40
2022-12-17T04:25:05.377Z,23.33
2022-12-17T04:27:50.476Z,22.27
2022-12-17T04:30:35.651Z,22.25
2022-12-17T04:33:21.145Z,24.75
2022-12-17T04:36:06.299Z,24.17
2022-12-17T04:38:51.695Z,22.38
2022-12-17T04:41:37.595Z,23.58
2022-12-17T04:44:22.602Z,22.42
2022-12-17T04:47:24.248Z,22.77
2022-12-17T04:50:09.373Z,21.95
2022-12-17T04:52:54.531Z,21.63
2022-12-17T04:55:39.562Z,21.95
2022-12-17T04:58:25.132Z,24.40
2022-12-17T05:01:11.398Z,23.42
2022-12-17T05:03:56.598Z,21.88
2022-12-17T05:06:41.818Z,20.10
2022-12-17T05:09:26.958Z,22.33
2022-12-17T05:12:12.060Z,20.55
2022-12-17T05:14:57.448Z,22.10
2022-12-17T05:17:42.572Z,19.88
2022-12-17T05:20:27.996Z,20.77
2022-12-17T05:23:12.852Z,22.73
2022-12-17T05:25:58.076Z,23.25
2022-12-17T05:28:43.285Z,22.45
2022-12-17T05:31:28.339Z,24.23
2022-12-17T05:34:13.516Z,26.63
2022-12-17T05:36:58.560Z,26.58
2022-12-17T05:39:43.432Z,26.73
2022-12-17T05:42:28.241Z,24.80
2022-12-17T05:45:33.252Z,25.58
2022-12-17T05:48:38.560Z,28.35
2022-12-17T05:51:23.790Z,26.83
2022-12-17T05:54:08.773Z,24.95
2022-12-17T05:56:53.720Z,29.35
2022-12-17T05:59:38.520Z,24.35
2022-12-17T06:02:23.442Z,19.92
2022-12-17T06:05:08.545Z,20.65
2022-12-17T06:07:53.751Z,19.67
2022-12-17T06:10:38.752Z,18.92
2022-12-17T06:13:23.521Z,17.80
2022-12-17T06:16:09.331Z,17.85
2022-12-17T06:18:55.366Z,17.98
2022-12-17T06:21:41.128Z,16.13
2022-12-17T06:24:26.572Z,16.42
2022-12-17T06:27:11.916Z,18.10
2022-12-17T06:29:57.174Z,16.20
2022-12-17T06:32:42.436Z,15.55
2022-12-17T06:35:27.790Z,19.35
2022-12-17T06:38:24.480Z,19.20
2022-12-17T06:41:12.754Z,20.02
2022-12-17T06:43:57.625Z,18.92
2022-12-17T06:46:42.807Z,21.13
2022-12-17T06:49:28.131Z,17.67
2022-12-17T06:52:13.310Z,18.73
2022-12-17T06:54:58.220Z,19.67
2022-12-17T06:57:48.766Z,20.00
2022-12-17T07:00:35.591Z,19.25
2022-12-17T07:03:23.962Z,19.60
2022-12-17T07:06:09.301Z,21.02
2022-12-17T07:08:54.295Z,21.67
2022-12-17T07:11:39.606Z,20.40
2022-12-17T07:14:24.733Z,20.42
2022-12-17T07:17:09.930Z,18.05
2022-12-17T07:19:54.993Z,20.77
2022-12-17T07:22:40.119Z,20.02
2022-12-17T07:25:25.635Z,20.85
2022-12-17T07:28:14.727Z,20.40
2022-12-17T07:31:00.305Z,19.95
2022-12-17T07:33:45.639Z,19.67
2022-12-17T07:36:30.792Z,19.38
2022-12-17T07:39:15.945Z,20.00
2022-12-17T07:42:01.095Z,21.13
2022-12-17T07:44:46.180Z,22.80
2022-12-17T07:47:31.490Z,20.77
2022-12-17T07:50:16.555Z,21.52
2022-12-17T07:53:01.938Z,21.75
2022-12-17T07:55:47.099Z,22.00
2022-12-17T07:58:32.226Z,22.33
2022-12-17T08:01:20.468Z,21.92
2022-12-17T08:04:05.532Z,21.65
2022-12-17T08:06:52.215Z,21.20
2022-12-17T08:09:39.089Z,23.40
2022-12-17T08:12:24.473Z,21.80
2022-12-17T08:15:11.299Z,21.42
2022-12-17T08:17:56.128Z,21.63
2022-12-17T08:20:41.573Z,22.02
2022-12-17T08:23:27.620Z,23.00
2022-12-17T08:26:12.926Z,25.25
2022-12-17T08:28:58.128Z,21.13
2022-12-17T08:31:43.740Z,25.23
2022-12-17T08:34:29.004Z,23.20
2022-12-17T08:37:14.014Z,23.05
2022-12-17T08:39:59.427Z,23.02
2022-12-17T08:42:44.683Z,24.17
2022-12-17T08:45:29.900Z,23.15
2022-12-17T08:48:24.946Z,25.95
2022-12-17T08:51:10.134Z,22.55
2022-12-17T08:53:55.206Z,23.38
2022-12-17T08:56:40.356Z,23.15
2022-12-17T08:59:25.892Z,22.70
2022-12-17T09:02:11.023Z,23.50
2022-12-17T09:04:56.174Z,23.20
2022-12-17T09:07:41.184Z,23.25
2022-12-17T09:10:26.586Z,21.55
2022-12-17T09:13:11.870Z,20.45
2022-12-17T09:15:57.053Z,21.77
2022-12-17T09:18:42.324Z,24.35
2022-12-17T09:21:27.273Z,23.10
2022-12-17T09:24:12.541Z,23.27
2022-12-17T09:26:57.877Z,22.13
2022-12-17T09:29:43.168Z,22.73
2022-12-17T09:32:28.325Z,22.58
2022-12-17T09:35:13.501Z,21.00
2022-12-17T09:37:58.796Z,19.33
2022-12-17T09:40:43.852Z,19.38
2022-12-17T09:43:44.237Z,19.73
2022-12-17T09:46:43.010Z,18.90
2022-12-17T09:49:42.783Z,17.98
2022-12-17T09:53:13.642Z,18.75
2022-12-17T09:56:04.956Z,17.23
2022-12-17T09:58:53.704Z,21.38
2022-12-17T10:01:44.553Z,20.48
2022-12-17T10:04:51.708Z,18.83
2022-12-17T10:07:41.420Z,18.58
2022-12-17T10:10:37.579Z,18.95
2022-12-17T10:13:35.155Z,19.75
2022-12-17T10:19:06.182Z,19.90
2022-12-17T10:22:00.049Z,18.30
2022-12-17T10:24:45.020Z,18.95
2022-12-17T10:27:30.269Z,22.02
2022-12-17T10:30:15.078Z,18.60
2022-12-17T10:33:00.631Z,19.33
2022-12-17T10:35:54.128Z,19.52
2022-12-17T10:38:46.376Z,19.42
2022-12-17T10:41:43.832Z,19.23
2022-12-17T10:44:53.128Z,20.50
2022-12-17T10:47:44.331Z,20.30
2022-12-17T10:50:32.001Z,18.35
2022-12-17T10:53:17.745Z,19.92
2022-12-17T10:56:10.485Z,20.17
2022-12-17T10:59:01.660Z,18.30
2022-12-17T11:01:47.058Z,20.08
2022-12-17T11:04:50.477Z,19.27
2022-12-17T11:07:50.196Z,20.83
2022-12-17T11:10:38.170Z,21.08
2022-12-17T11:16:41.118Z,21.50
2022-12-17T11:19:32.319Z,20.08
2022-12-17T11:22:26.462Z,21.60
2022-12-17T11:25:19.211Z,22.85
2022-12-17T11:28:12.438Z,23.00
2022-12-17T11:31:08.149Z,21.15
2022-12-17T11:34:01.238Z,22.33
2022-12-17T11:36:58.570Z,21.42
2022-12-17T11:39:54.140Z,22.17
2022-12-17T11:43:12.572Z,20.98
2022-12-17T11:46:32.677Z,19.33
2022-12-17T11:49:43.769Z,19.92
2022-12-17T11:52:51.757Z,18.95
2022-12-17T11:55:46.983Z,19.20
2022-12-17T11:58:43.599Z,19.00
2022-12-17T12:02:13.799Z,19.70
2022-12-17T12:05:32.682Z,20.35
2022-12-17T12:08:20.822Z,20.67
2022-12-17T12:11:19.534Z,19.55
2022-12-17T12:14:30.371Z,20.50
2022-12-17T12:17:37.093Z,20.27
2022-12-17T12:20:21.905Z,20.60
2022-12-17T12:23:20.053Z,21.08
2022-12-17T12:26:12.752Z,20.75
2022-12-17T12:29:00.847Z,19.58
2022-12-17T12:34:45.935Z,19.42
2022-12-17T12:37:33.005Z,19.80
2022-12-17T12:40:48.163Z,19.53
2022-12-17T12:43:49.188Z,18.23
2022-12-17T12:46:56.210Z,19.25
2022-12-17T12:50:01.655Z,19.98
2022-12-17T12:52:46.958Z,19.63
2022-12-17T12:55:32.053Z,20.25
2022-12-17T12:58:19.613Z,21.02
2022-12-17T13:01:07.922Z,20.65
2022-12-17T13:04:09.203Z,21.48
2022-12-17T13:06:50.848Z,19.58
2022-12-17T13:09:30.910Z,20.35
2022-12-17T13:12:00.554Z,21.60
2022-12-17T13:14:33.805Z,19.90
2022-12-17T13:17:16.044Z,19.10
2022-12-17T13:19:58.041Z,21.52
2022-12-17T13:22:27.972Z,19.25
2022-12-17T13:24:57.844Z,19.13
2022-12-17T13:27:38.686Z,19.33
2022-12-17T13:30:17.413Z,19.25
2022-12-17T13:33:21.202Z,19.05
2022-12-17T13:35:56.501Z,18.38
2022-12-17T13:39:04.619Z,19.80
2022-12-17T13:41:32.674Z,21.00
2022-12-17T13:44:15.811Z,20.95
2022-12-17T13:46:47.318Z,20.38
2022-12-17T13:49:23.254Z,19.40
2022-12-17T13:52:20.379Z,20.25
2022-12-17T13:54:47.559Z,20.48
2022-12-17T13:57:15.738Z,20.23
2022-12-17T14:00:07.368Z,19.52
2022-12-17T14:02:39.381Z,20.50
2022-12-17T14:05:24.299Z,19.50
2022-12-17T14:07:51.554Z,18.73
2022-12-17T14:10:19.117Z,18.10
2022-12-17T14:12:46.109Z,19.20
2022-12-17T14:15:33.332Z,17.25
2022-12-17T14:18:00.268Z,17.67
2022-12-17T14:20:30.055Z,19.02
2022-12-17T14:23:00.700Z,19.77
2022-12-17T14:25:30.355Z,19.17
2022-12-17T14:28:00.424Z,17.52
2022-12-17T14:30:32.870Z,18.02
2022-12-17T14:32:59.592Z,17.90
2022-12-17T14:35:28.924Z,18.77
2022-12-17T14:37:55.786Z,19.50
2022-12-17T14:40:25.109Z,20.13
2022-12-17T14:42:52.891Z,18.73
2022-12-17T14:45:19.450Z,19.73
2022-12-17T14:48:14.987Z,18.20
2022-12-17T14:50:41.583Z,17.75
2022-12-17T14:53:28.401Z,19.42
2022-12-17T14:55:58.832Z,18.58
2022-12-17T14:58:26.433Z,17.88
2022-12-17T15:00:58.830Z,19.17
2022-12-17T15:03:28.293Z,18.33
2022-12-17T15:05:58.148Z,19.15
2022-12-17T15:08:25.269Z,18.73
2022-12-17T15:10:51.991Z,19.40
2022-12-17T15:13:18.596Z,19.08
2022-12-17T15:15:45.372Z,19.48
2022-12-17T15:18:11.932Z,17.42
2022-12-17T15:20:38.512Z,20.00
2022-12-17T15:23:05.209Z,19.50
2022-12-17T15:25:31.843Z,19.10
2022-12-17T15:27:58.423Z,19.75
2022-12-17T15:30:25.002Z,19.30
2022-12-17T15:32:51.547Z,20.83
2022-12-17T15:35:18.220Z,18.13
2022-12-17T15:37:44.817Z,19.33
2022-12-17T15:40:12.080Z,18.15
2022-12-17T15:42:59.186Z,17.45
2022-12-17T15:45:31.120Z,18.35
2022-12-17T15:47:57.973Z,19.38
2022-12-17T15:50:24.544Z,18.88
2022-12-17T15:52:51.351Z,19.38
2022-12-17T15:55:17.980Z,17.63
2022-12-17T15:57:44.658Z,18.63
2022-12-17T16:00:11.677Z,19.05
2022-12-17T16:02:38.885Z,21.80
2022-12-17T16:05:06.134Z,17.37
2022-12-17T16:07:32.782Z,17.02
2022-12-17T16:10:04.853Z,17.55
2022-12-17T16:12:32.724Z,17.85
2022-12-17T16:14:59.338Z,16.30
2022-12-17T16:17:25.980Z,19.17
2022-12-17T16:19:52.597Z,20.13
2022-12-17T16:22:19.203Z,21.15
2022-12-17T16:24:45.978Z,22.42
2022-12-17T16:27:13.204Z,22.13
2022-12-17T16:29:39.816Z,20.57
2022-12-17T16:32:06.570Z,20.45
2022-12-17T16:34:33.191Z,19.20
2022-12-17T16:37:01.448Z,18.95
2022-12-17T16:39:28.377Z,18.50
2022-12-17T16:41:55.171Z,18.20
2022-12-17T16:44:21.752Z,18.65
2022-12-17T16:46:48.409Z,17.88
2022-12-17T16:49:18.238Z,21.13
2022-12-17T16:51:46.293Z,19.27
2022-12-17T16:54:15.423Z,20.30
2022-12-17T16:56:42.160Z,19.48
2022-12-17T16:59:09.628Z,21.55
2022-12-17T17:01:37.122Z,20.13
2022-12-17T17:04:05.183Z,21.52
2022-12-17T17:06:33.752Z,19.73
2022-12-17T17:09:04.060Z,19.85
2022-12-17T17:11:30.672Z,19.50
2022-12-17T17:13:57.250Z,20.35
2022-12-17T17:16:25.027Z,19.88
2022-12-17T17:18:52.297Z,20.58
2022-12-17T17:21:18.818Z,20.27
2022-12-17T17:23:46.607Z,20.98
2022-12-17T17:26:14.269Z,18.42
2022-12-17T17:28:41.176Z,19.48
2022-12-17T17:31:10.855Z,19.33
2022-12-17T17:33:40.047Z,19.40
2022-12-17T17:36:11.402Z,20.52
2022-12-17T17:38:39.883Z,21.27
2022-12-17T17:41:08.451Z,23.70
2022-12-17T17:43:35.136Z,23.80
2022-12-17T17:46:05.803Z,25.55
2022-12-17T17:48:33.686Z,25.25
2022-12-17T17:51:06.089Z,26.48
2022-12-17T17:53:33.014Z,25.10
2022-12-17T17:56:08.359Z,27.70
2022-12-17T17:58:35.484Z,27.20
2022-12-17T18:01:08.927Z,26.52
2022-12-17T18:03:35.743Z,25.60
2022-12-17T18:06:03.596Z,24.58
2022-12-17T18:08:34.935Z,23.67
2022-12-17T18:11:03.385Z,25.40
2022-12-17T18:16:15.351Z,24.80
2022-12-17T18:18:42.081Z,27.60
2022-12-17T18:21:14.363Z,27.48
2022-12-17T18:23:41.455Z,26.52
2022-12-17T18:26:10.802Z,27.05
2022-12-17T18:28:38.252Z,35.95
2022-12-17T18:31:26.278Z,34.70
2022-12-17T18:33:55.836Z,30.55
2022-12-17T18:36:28.042Z,34.75
2022-12-17T18:39:03.314Z,34.95
2022-12-17T18:41:48.370Z,35.22
2022-12-17T18:44:15.559Z,44.38
2022-12-17T18:46:43.509Z,43.30
2022-12-17T18:49:13.227Z,37.28
2022-12-17T18:51:41.990Z,36.42
2022-12-17T18:54:12.615Z,31.20
2022-12-17T18:57:00.401Z,26.92
2022-12-17T18:59:29.217Z,25.75
2022-12-17T19:01:56.702Z,26.45
2022-12-17T19:04:24.353Z,24.73
2022-12-17T19:06:53.564Z,23.67
2022-12-17T19:09:22.969Z,25.15
2022-12-17T19:11:50.518Z,24.63
2022-12-17T19:14:22.100Z,23.10
2022-12-17T19:16:49.620Z,21.92
2022-12-17T19:19:16.406Z,22.98
2022-12-17T19:21:43.007Z,27.15
2022-12-17T19:24:13.331Z,25.58
2022-12-17T19:26:40.067Z,27.70
2022-12-17T19:29:08.530Z,26.55
2022-12-17T19:31:35.550Z,24.63
2022-12-17T19:34:04.909Z,21.92
2022-12-17T19:36:32.818Z,23.63
2022-12-17T19:39:01.300Z,22.33
2022-12-17T19:41:28.652Z,22.50
2022-12-17T19:43:57.473Z,22.20
2022-12-17T19:46:24.467Z,19.25
2022-12-17T19:48:52.493Z,19.15
2022-12-17T19:51:21.891Z,21.13
2022-12-17T19:53:49.356Z,21.17
2022-12-17T19:56:15.856Z,20.13
2022-12-17T19:58:43.471Z,18.52
2022-12-17T20:01:13.254Z,20.15
2022-12-17T20:03:40.770Z,21.13
2022-12-17T20:06:08.527Z,20.92
2022-12-17T20:08:35.504Z,19.77
2022-12-17T20:11:04.516Z,19.23
2022-12-17T20:13:31.152Z,18.98
2022-12-17T20:16:02.100Z,20.85
2022-12-17T20:18:29.008Z,18.25
2022-12-17T20:21:05.923Z,20.20
2022-12-17T20:23:32.791Z,19.50
2022-12-17T20:26:04.283Z,19.58
2022-12-17T20:28:30.929Z,18.60
2022-12-17T20:30:58.087Z,18.15
2022-12-17T20:33:24.835Z,18.42
2022-12-17T20:35:51.621Z,17.02
2022-12-17T20:38:18.237Z,17.40
2022-12-17T20:40:44.823Z,17.55
2022-12-17T20:43:11.792Z,17.83
2022-12-17T20:45:38.469Z,18.20
2022-12-17T20:48:05.305Z,17.88
2022-12-17T20:50:31.915Z,17.35
2022-12-17T20:52:58.487Z,19.52
2022-12-17T20:55:30.797Z,18.15
2022-12-17T20:57:57.626Z,17.52
2022-12-17T21:00:24.237Z,19.10
2022-12-17T21:02:51.000Z,18.05
2022-12-17T21:05:18.159Z,16.45
2022-12-17T21:07:45.238Z,16.25
2022-12-17T21:10:12.319Z,16.63
2022-12-17T21:12:57.527Z,22.45
2022-12-17T21:15:24.143Z,18.20
2022-12-17T21:17:50.684Z,17.08
2022-12-17T21:20:17.287Z,17.27
2022-12-17T21:22:44.212Z,16.30
2022-12-17T21:25:10.798Z,17.05
2022-12-17T21:27:37.484Z,16.88
2022-12-17T21:30:06.245Z,15.38
2022-12-17T21:32:36.690Z,15.38
2022-12-17T21:35:03.464Z,18.85
2022-12-17T21:37:30.052Z,20.50
2022-12-17T21:39:59.780Z,18.65
2022-12-17T21:42:45.212Z,17.85
2022-12-17T21:45:11.770Z,17.60
2022-12-17T21:47:38.520Z,18.27
2022-12-17T21:50:05.475Z,18.02
2022-12-17T21:52:32.179Z,19.15
2022-12-17T21:54:58.751Z,20.33
2022-12-17T21:57:25.294Z,21.65
2022-12-17T21:59:51.856Z,21.05
2022-12-17T22:02:19.713Z,18.50
2022-12-17T22:04:46.908Z,19.17
2022-12-17T22:07:19.460Z,22.15
2022-12-17T22:10:02.532Z,19.77
2022-12-17T22:12:57.011Z,17.38
2022-12-17T22:15:25.797Z,17.02
2022-12-17T22:17:56.308Z,16.92
2022-12-17T22:20:23.866Z,17.05
2022-12-17T22:22:50.498Z,16.85
2022-12-17T22:25:17.240Z,17.67
2022-12-17T22:27:43.956Z,19.67
2022-12-17T22:30:34.982Z,16.67
2022-12-17T22:33:20.035Z,16.38
2022-12-17T22:38:34.746Z,16.67
2022-12-17T22:44:29.160Z,14.95
2022-12-17T22:44:37.956Z,17.65
2022-12-17T22:44:51.495Z,16.65
2022-12-17T22:47:18.376Z,16.00
2022-12-17T22:49:44.931Z,15.27
2022-12-17T22:52:11.526Z,15.90
2022-12-17T22:54:38.258Z,14.52
2022-12-17T22:57:34.838Z,17.92
2022-12-17T22:59:51.778Z,17.27
2022-12-17T23:02:18.543Z,16.05
2022-12-17T23:04:46.160Z,16.70
2022-12-17T23:07:12.725Z,16.33
2022-12-17T23:09:39.336Z,16.05
2022-12-17T23:12:24.767Z,15.68
2022-12-17T23:14:51.351Z,14.27
2022-12-17T23:17:17.916Z,15.85
2022-12-17T23:19:44.480Z,15.40
2022-12-17T23:22:11.064Z,15.57
2022-12-17T23:24:37.723Z,16.92
2022-12-17T23:27:04.295Z,15.07
2022-12-17T23:29:30.855Z,17.17
2022-12-17T23:31:57.420Z,16.52
2022-12-17T23:34:24.581Z,15.05
2022-12-17T23:36:51.250Z,15.53
2022-12-17T23:39:17.957Z,16.27
2022-12-17T23:41:44.556Z,15.65
2022-12-17T23:44:11.114Z,16.75
2022-12-17T23:46:37.856Z,15.70
2022-12-17T23:49:08.738Z,17.58
2022-12-17T23:51:35.415Z,15.98
2022-12-17T23:54:02.046Z,14.10
2022-12-17T23:56:28.878Z,14.85
2022-12-17T23:58:58.218Z,14.15
